Time;durP1;ratioP1;P1;durP2;ratioP2;P2;SDS_P1;SDS_P2;PMS_P1;PMS_P2;Temp;Humidity;BMP_temperature;BMP_pressure;BME280_temperature;BME280_humidity;BME280_pressure;Samples;Min_cycle;Max_cycle;Signal;HPM_P1;HPM_P2
2022/03/02 00:04:32;;;;;;;11.05;7.07;;;;;;;5.12;49.64;101357.13;5293886;23;20537;-77
2022/03/02 00:06:59;;;;;;;11.23;7.63;;;;;;;5.07;49.38;101359.81;5036485;28;20386;-79
2022/03/02 00:09:29;;;;;;;11.35;7.15;;;;;;;5.01;49.46;101355.31;5046911;28;20049;-78
2022/03/02 00:11:57;;;;;;;10.73;7.55;;;;;;;4.96;49.51;101352.50;5047312;28;20049;-79
2022/03/02 00:14:26;;;;;;;9.60;7.13;;;;;;;4.94;49.84;101360.22;5033621;28;20050;-78
2022/03/02 00:16:53;;;;;;;10.13;7.63;;;;;;;4.88;50.16;101362.88;5033310;28;20443;-78
2022/03/02 00:19:21;;;;;;;9.73;7.00;;;;;;;4.84;50.68;101361.72;5033595;28;20064;-78
2022/03/02 00:21:48;;;;;;;9.68;7.03;;;;;;;4.82;49.84;101369.41;5033193;28;20339;-78
2022/03/02 00:24:15;;;;;;;10.07;7.05;;;;;;;4.77;49.79;101365.75;5035482;28;20049;-78
2022/03/02 00:26:43;;;;;;;9.60;6.78;;;;;;;4.76;49.94;101358.56;5033384;28;20045;-78
2022/03/02 00:29:10;;;;;;;11.98;7.63;;;;;;;4.73;50.15;101353.56;5032742;28;20386;-78
2022/03/02 00:31:39;;;;;;;11.07;7.47;;;;;;;4.67;50.19;101358.16;5033008;28;20056;-78
2022/03/02 00:34:07;;;;;;;10.90;7.20;;;;;;;4.62;49.84;101349.78;5033358;28;20076;-78
2022/03/02 00:36:35;;;;;;;12.70;7.45;;;;;;;4.56;50.22;101350.81;5032518;28;20402;-78
2022/03/02 00:39:02;;;;;;;10.13;7.32;;;;;;;4.57;50.79;101344.19;5035372;28;20053;-78
2022/03/02 00:41:29;;;;;;;11.75;7.18;;;;;;;4.54;50.84;101341.97;5053068;28;20053;-78
2022/03/02 00:43:57;;;;;;;9.50;6.65;;;;;;;4.55;51.38;101338.09;5043054;28;20405;-78
2022/03/02 00:46:29;;;;;;;11.68;7.63;;;;;;;4.55;51.95;101338.09;5032805;28;20057;-78
2022/03/02 00:49:01;;;;;;;10.27;7.50;;;;;;;4.57;52.38;101334.00;5033187;28;20488;-78
2022/03/02 00:51:29;;;;;;;9.57;7.05;;;;;;;4.59;52.40;101336.50;5033190;28;20049;-78
2022/03/02 00:53:58;;;;;;;10.98;7.68;;;;;;;4.60;52.78;101329.88;5039830;28;20064;-78
2022/03/02 00:56:25;;;;;;;9.80;7.22;;;;;;;4.60;52.48;101327.13;5053126;28;20056;-78
2022/03/02 00:58:53;;;;;;;10.10;7.20;;;;;;;4.59;52.50;101317.19;5038213;28;20053;-78
2022/03/02 01:01:20;;;;;;;12.00;7.35;;;;;;;4.60;52.34;101321.59;5036028;28;20504;-78
2022/03/02 01:03:49;;;;;;;10.75;7.50;;;;;;;4.64;51.95;101314.50;5038845;28;20054;-78
2022/03/02 01:06:18;;;;;;;10.88;7.53;;;;;;;4.62;51.33;101313.91;5054805;28;20060;-78
2022/03/02 01:08:46;;;;;;;11.93;7.03;;;;;;;4.48;50.24;101306.00;5036469;28;20064;-78
2022/03/02 01:11:13;;;;;;;10.90;7.47;;;;;;;4.53;52.01;101304.41;5036224;28;20068;-78
2022/03/02 01:13:41;;;;;;;11.07;7.20;;;;;;;4.53;53.48;101307.16;5036069;28;20057;-79
2022/03/02 01:16:08;;;;;;;10.90;6.50;;;;;;;4.51;53.99;101310.19;5036342;28;20117;-78
2022/03/02 01:18:35;;;;;;;9.73;6.50;;;;;;;4.48;53.55;101300.50;5036792;28;20493;-78
2022/03/02 01:21:03;;;;;;;10.35;6.85;;;;;;;4.49;53.88;101295.78;5035851;28;20049;-78
2022/03/02 01:23:32;;;;;;;8.98;5.90;;;;;;;4.50;53.88;101297.47;5036063;28;20049;-79
2022/03/02 01:25:59;;;;;;;8.93;6.15;;;;;;;4.52;54.09;101291.72;5036056;28;20045;-78
2022/03/02 01:28:27;;;;;;;8.65;6.55;;;;;;;4.47;54.38;101290.56;5036031;28;20061;-77
2022/03/02 01:30:54;;;;;;;11.63;6.60;;;;;;;4.47;54.81;101285.03;5036593;28;20493;-78
2022/03/02 01:33:22;;;;;;;11.23;7.47;;;;;;;4.47;54.95;101278.66;5035139;28;20057;-78
2022/03/02 01:35:49;;;;;;;10.57;7.15;;;;;;;4.52;54.60;101276.00;5036424;28;20390;-78
2022/03/02 01:38:17;;;;;;;10.35;6.72;;;;;;;4.58;54.87;101279.66;5035775;28;20065;-78
2022/03/02 01:40:45;;;;;;;9.70;6.25;;;;;;;4.60;54.63;101277.47;5035336;28;20512;-77
2022/03/02 01:43:16;;;;;;;13.27;7.40;;;;;;;4.65;54.06;101269.28;5036417;28;20050;-77
2022/03/02 01:45:43;;;;;;;11.85;7.65;;;;;;;4.71;53.70;101273.78;5036386;28;20057;-78
2022/03/02 01:48:11;;;;;;;9.00;6.45;;;;;;;4.72;53.80;101274.59;5035654;28;20398;-78
2022/03/02 01:50:38;;;;;;;10.00;7.30;;;;;;;4.70;53.51;101272.09;5035797;28;20466;-77
2022/03/02 01:53:06;;;;;;;9.23;6.88;;;;;;;4.68;53.77;101274.25;5035942;28;20057;-77
2022/03/02 01:55:33;;;;;;;12.02;7.47;;;;;;;4.70;54.79;101265.75;5035337;28;20488;-78
2022/03/02 01:58:02;;;;;;;11.43;7.03;;;;;;;4.74;53.74;101258.63;5035526;28;20060;-80
2022/03/02 02:00:29;;;;;;;9.45;6.38;;;;;;;4.81;53.87;101262.03;5035709;28;20064;-77
2022/03/02 02:02:57;;;;;;;10.98;7.63;;;;;;;4.83;53.97;101266.22;5035041;28;20060;-78
2022/03/02 02:05:25;;;;;;;9.73;6.50;;;;;;;4.90;53.10;101260.50;5049547;28;20057;-78
2022/03/02 02:07:52;;;;;;;8.80;6.53;;;;;;;4.92;53.46;101263.00;5044099;28;20049;-79
2022/03/02 02:10:19;;;;;;;9.40;6.30;;;;;;;4.91;53.57;101262.16;5034398;28;20409;-78
2022/03/02 02:12:47;;;;;;;8.98;6.68;;;;;;;4.94;53.33;101247.84;5034613;28;20049;-78
2022/03/02 02:15:16;;;;;;;8.75;6.60;;;;;;;4.96;53.72;101251.19;5033501;28;20053;-78
2022/03/02 02:17:43;;;;;;;10.07;7.00;;;;;;;4.92;53.74;101249.19;5034243;28;20478;-78
2022/03/02 02:20:12;;;;;;;10.40;6.82;;;;;;;4.90;53.82;101248.63;5034723;28;20057;-78
2022/03/02 02:22:42;;;;;;;11.55;7.93;;;;;;;4.92;53.44;101249.19;5033906;28;20050;-79
2022/03/02 02:25:10;;;;;;;11.52;7.55;;;;;;;4.89;53.05;101242.25;5043798;28;20061;-78
2022/03/02 02:27:38;;;;;;;12.35;8.50;;;;;;;4.82;53.13;101253.47;5034024;28;20446;-78
2022/03/02 02:30:08;;;;;;;12.95;8.75;;;;;;;4.81;53.06;101253.75;5033764;28;20060;-78
2022/03/02 02:32:37;;;;;;;13.85;7.53;;;;;;;4.79;52.26;101242.16;5034041;28;20511;-78
2022/03/02 02:35:07;;;;;;;13.02;8.52;;;;;;;4.82;51.09;101241.63;5034189;28;20057;-78
2022/03/02 02:37:35;;;;;;;12.35;8.20;;;;;;;4.81;52.31;101246.31;5034724;28;20045;-78
2022/03/02 02:40:06;;;;;;;11.05;7.35;;;;;;;4.81;52.67;101231.69;5033263;28;20052;-78
2022/03/02 02:42:34;;;;;;;9.35;6.50;;;;;;;4.73;53.62;101232.97;5039443;28;20068;-78
2022/03/02 02:45:02;;;;;;;9.77;6.38;;;;;;;4.75;53.67;101241.81;5033813;28;20050;-77
2022/03/02 02:47:30;;;;;;;10.73;6.85;;;;;;;4.72;54.05;101239.56;5033748;28;20049;-78
2022/03/02 02:49:57;;;;;;;9.88;6.45;;;;;;;4.71;54.08;101224.09;5033599;28;20056;-78
2022/03/02 02:52:24;;;;;;;11.60;7.10;;;;;;;4.69;54.10;101229.03;5033248;28;20053;-78
2022/03/02 02:54:51;;;;;;;10.23;7.07;;;;;;;4.61;54.80;101226.72;5033539;28;20064;-78
2022/03/02 02:57:20;;;;;;;10.73;7.03;;;;;;;4.62;54.64;101220.09;5033375;28;20053;-79
2022/03/02 02:59:47;;;;;;;9.13;6.43;;;;;;;4.59;54.91;101229.72;5033836;28;20060;-78
2022/03/02 03:02:17;;;;;;;8.80;6.50;;;;;;;4.59;54.34;101224.22;5033029;28;20172;-78
2022/03/02 03:04:45;;;;;;;;;;;;;;;4.58;55.31;101227.25;4999116;28;1323273;-79
2022/03/02 03:07:12;;;;;;;9.40;6.40;;;;;;;4.54;55.04;101226.09;5054578;28;19921;-78
2022/03/02 03:09:39;;;;;;;10.25;6.75;;;;;;;4.51;55.33;101223.81;5047030;28;20056;-78
2022/03/02 03:12:07;;;;;;;12.05;7.22;;;;;;;4.51;54.71;101221.06;5032493;28;20072;-79
2022/03/02 03:14:36;;;;;;;9.07;6.55;;;;;;;4.44;54.64;101218.50;5034842;28;20065;-78
2022/03/02 03:17:04;;;;;;;11.32;7.18;;;;;;;4.43;54.45;101214.06;5034246;28;20080;-78
2022/03/02 03:19:32;;;;;;;10.30;6.95;;;;;;;4.43;54.29;101205.78;5033600;28;20064;-78
2022/03/02 03:22:04;;;;;;;11.90;7.00;;;;;;;4.44;54.72;101213.81;5033322;28;20057;-78
2022/03/02 03:24:31;;;;;;;10.57;6.55;;;;;;;4.47;54.53;101217.97;5034054;28;20050;-78
2022/03/02 03:26:59;;;;;;;10.52;7.47;;;;;;;4.47;55.07;101218.84;5033372;28;20064;-78
2022/03/02 03:29:26;;;;;;;9.38;7.18;;;;;;;4.46;54.42;101213.56;5034119;28;20557;-78
2022/03/02 03:31:55;;;;;;;10.57;7.22;;;;;;;4.42;55.60;101209.66;5034225;28;20049;-78
2022/03/02 03:34:22;;;;;;;10.73;7.38;;;;;;;4.46;54.76;101216.31;5034261;28;20521;-78
2022/03/02 03:36:52;;;;;;;10.02;6.85;;;;;;;4.47;54.80;101217.97;5033422;28;20060;-78
2022/03/02 03:39:21;;;;;;;9.90;6.70;;;;;;;4.46;54.94;101217.16;5033900;28;20496;-78
2022/03/02 03:41:49;;;;;;;10.32;7.18;;;;;;;4.45;55.21;101214.63;5033488;28;20056;-78
2022/03/02 03:44:16;;;;;;;10.70;7.05;;;;;;;4.48;55.16;101220.50;5033558;28;20462;-78
2022/03/02 03:46:43;;;;;;;8.82;6.32;;;;;;;4.45;54.33;101218.25;5033847;28;20058;-78
2022/03/02 03:49:15;;;;;;;11.93;7.40;;;;;;;4.42;55.13;101218.75;5033248;28;20433;-78
2022/03/02 03:51:42;;;;;;;10.43;7.25;;;;;;;4.40;54.74;101223.69;5033864;28;20060;-78
2022/03/02 03:54:10;;;;;;;9.30;7.00;;;;;;;4.40;54.86;101218.16;5033287;28;20054;-78
2022/03/02 03:56:37;;;;;;;9.93;6.90;;;;;;;4.38;54.99;101212.06;5033481;28;20054;-77
2022/03/02 03:59:07;;;;;;;9.82;7.20;;;;;;;4.38;54.84;101209.31;5033004;28;20428;-78
2022/03/02 04:01:35;;;;;;;10.23;7.25;;;;;;;4.38;55.29;101214.00;5033746;28;20057;-78
2022/03/02 04:04:03;;;;;;;11.68;7.75;;;;;;;4.37;54.83;101207.66;5037338;28;20049;-78
2022/03/02 04:06:32;;;;;;;10.52;7.68;;;;;;;4.37;54.75;101206.84;5033282;28;20045;-78
2022/03/02 04:09:00;;;;;;;10.73;7.63;;;;;;;4.33;55.61;101206.50;5033553;28;20060;-78
2022/03/02 04:11:27;;;;;;;9.90;7.22;;;;;;;4.36;55.90;101200.47;5032660;28;20057;-78
2022/03/02 04:13:59;;;;;;;9.63;7.15;;;;;;;4.39;54.93;101204.63;5033697;28;20050;-77
2022/03/02 04:16:28;;;;;;;11.38;6.75;;;;;;;4.39;54.57;101202.72;5033504;28;20401;-78
2022/03/02 04:18:55;;;;;;;10.90;6.80;;;;;;;4.40;54.98;101196.09;5033230;28;20493;-78
2022/03/02 04:21:23;;;;;;;11.02;7.75;;;;;;;4.39;55.65;101194.44;5032462;28;20053;-78
2022/03/02 04:23:51;;;;;;;13.00;7.53;;;;;;;4.38;55.61;101181.72;5032849;28;20046;-78
2022/03/02 04:26:18;;;;;;;9.15;6.55;;;;;;;4.38;55.65;101187.25;5033618;28;20525;-79
2022/03/02 04:28:46;;;;;;;8.98;6.88;;;;;;;4.34;54.91;101185.25;5033232;28;20425;-79
2022/03/02 04:31:13;;;;;;;9.68;7.05;;;;;;;4.31;55.39;101178.34;5032638;28;20056;-79
2022/03/02 04:33:40;;;;;;;10.82;7.18;;;;;;;4.33;54.81;101178.91;5033764;28;20498;-79
2022/03/02 04:36:08;;;;;;;10.48;6.93;;;;;;;4.32;54.80;101177.22;5033452;28;20053;-79
2022/03/02 04:38:35;;;;;;;11.95;8.77;;;;;;;4.33;54.70;101176.16;5032584;28;20053;-79
2022/03/02 04:41:04;;;;;;;10.50;7.47;;;;;;;4.30;54.36;101179.41;5046329;28;20046;-79
2022/03/02 04:43:31;;;;;;;11.23;8.30;;;;;;;4.23;54.94;101179.59;5033611;28;20060;-79
2022/03/02 04:45:59;;;;;;;10.95;7.90;;;;;;;4.21;54.55;101175.44;5033442;28;20058;-79
2022/03/02 04:48:27;;;;;;;11.50;8.10;;;;;;;4.18;54.42;101179.56;5032835;28;20401;-79
2022/03/02 04:50:54;;;;;;;10.90;7.18;;;;;;;4.16;55.17;101178.09;5032829;28;20493;-79
2022/03/02 04:53:23;;;;;;;9.68;7.15;;;;;;;4.10;55.00;101177.22;5033106;28;20068;-79
2022/03/02 04:55:52;;;;;;;10.23;7.20;;;;;;;4.07;55.02;101173.06;5032832;28;20053;-79
2022/03/02 04:58:21;;;;;;;11.68;7.03;;;;;;;4.03;55.95;101174.66;5033133;28;20844;-79
2022/03/02 05:00:49;;;;;;;11.98;7.65;;;;;;;3.98;55.63;101165.47;5032769;28;20057;-79
2022/03/02 05:03:17;;;;;;;8.85;7.70;;;;;;;3.97;55.55;101164.63;5032261;28;20425;-79
2022/03/02 05:05:44;;;;;;;10.35;6.93;;;;;;;3.90;56.36;101161.22;5033174;28;20057;-79
2022/03/02 05:08:11;;;;;;;9.10;6.70;;;;;;;3.86;56.52;101163.66;5033777;28;20049;-79
2022/03/02 05:10:39;;;;;;;9.95;6.97;;;;;;;3.86;55.97;101160.03;5032290;28;20049;-80
2022/03/02 05:13:06;;;;;;;11.65;7.40;;;;;;;3.82;55.76;101159.72;5033251;28;20065;-78
2022/03/02 05:15:35;;;;;;;15.88;9.73;;;;;;;3.80;55.80;101159.16;5032303;28;20060;-79
2022/03/02 05:18:03;;;;;;;13.80;9.35;;;;;;;3.73;55.63;101149.38;5032731;28;20409;-79
2022/03/02 05:20:30;;;;;;;13.98;9.30;;;;;;;3.65;56.50;101154.25;5032153;28;20470;-79
2022/03/02 05:22:57;;;;;;;12.65;8.32;;;;;;;3.62;55.92;101159.41;5037730;28;20486;-79
2022/03/02 05:25:25;;;;;;;12.55;8.55;;;;;;;3.54;56.60;101166.16;5050772;28;20053;-79
2022/03/02 05:27:52;;;;;;;13.00;8.25;;;;;;;3.46;57.22;101163.81;5032518;28;20045;-79
2022/03/02 05:30:20;;;;;;;11.98;8.15;;;;;;;3.41;56.96;101169.25;5024697;28;20054;-79
2022/03/02 05:32:49;;;;;;;13.27;8.50;;;;;;;3.30;57.38;101168.25;5032553;28;20410;-79
2022/03/02 05:35:17;;;;;;;10.38;7.45;;;;;;;3.30;57.36;101164.63;5032810;28;20425;-79
2022/03/02 05:37:44;;;;;;;11.77;8.20;;;;;;;3.23;57.34;101162.91;5032608;28;20049;-79
2022/03/02 05:40:15;;;;;;;14.00;8.52;;;;;;;3.21;57.64;101159.56;5032896;28;20564;-78
2022/03/02 05:42:42;;;;;;;12.85;7.88;;;;;;;3.20;57.38;101163.38;5032827;28;20049;-78
2022/03/02 05:45:10;;;;;;;14.20;9.23;;;;;;;3.17;57.58;101169.41;5036183;28;20081;-79
2022/03/02 05:47:39;;;;;;;12.57;8.43;;;;;;;3.17;59.75;101158.41;5035739;28;20504;-77
2022/03/02 05:50:10;;;;;;;10.52;7.07;;;;;;;3.26;58.45;101150.56;5036195;28;20060;-78
2022/03/02 05:52:37;;;;;;;11.20;7.88;;;;;;;3.30;57.80;101153.63;5035546;28;20057;-78
2022/03/02 05:55:05;;;;;;;11.65;8.55;;;;;;;3.28;57.42;101153.06;5035690;28;20068;-78
2022/03/02 05:57:33;;;;;;;13.55;8.05;;;;;;;3.20;57.55;101160.63;5034744;28;20413;-78
2022/03/02 06:00:00;;;;;;;12.65;8.32;;;;;;;3.17;57.14;101158.41;5034931;28;20485;-79
2022/03/02 06:02:27;;;;;;;13.52;8.40;;;;;;;3.15;56.89;101152.31;5030495;28;20458;-79
2022/03/02 06:04:55;;;;;;;12.48;8.35;;;;;;;3.11;57.95;101159.38;5034235;28;20050;-78
2022/03/02 06:07:23;;;;;;;14.80;9.23;;;;;;;3.07;57.55;101160.09;5032655;28;20151;-79
2022/03/02 06:09:51;;;;;;;11.13;8.10;;;;;;;3.06;57.84;101159.28;5035228;28;20060;-80
2022/03/02 06:12:19;;;;;;;13.65;7.72;;;;;;;3.04;57.67;101170.56;5034683;28;20049;-78
2022/03/02 06:14:48;;;;;;;10.60;8.05;;;;;;;3.05;57.39;101158.44;5032740;28;20045;-78
2022/03/02 06:17:15;;;;;;;10.65;7.47;;;;;;;3.05;57.82;101158.44;5039106;28;20048;-78
2022/03/02 06:19:43;;;;;;;10.57;7.75;;;;;;;3.07;57.19;101158.22;5055272;28;20060;-78
2022/03/02 06:22:11;;;;;;;10.43;7.80;;;;;;;3.03;56.93;101165.28;5055621;28;20060;-78
2022/03/02 06:24:40;;;;;;;11.95;7.35;;;;;;;3.04;57.58;101169.69;5035417;28;20054;-78
2022/03/02 06:27:08;;;;;;;12.35;7.80;;;;;;;3.00;57.30;101163.00;5034586;28;20072;-78
2022/03/02 06:29:35;;;;;;;10.20;7.28;;;;;;;2.85;57.72;101156.13;5035585;28;20050;-78
2022/03/02 06:32:03;;;;;;;10.70;6.78;;;;;;;2.82;57.50;101158.56;5034478;28;20410;-78
2022/03/02 06:34:31;;;;;;;11.63;7.38;;;;;;;2.83;57.91;101158.34;5035844;28;20060;-78
2022/03/02 06:36:59;;;;;;;10.38;7.47;;;;;;;2.76;58.67;101160.38;5035227;28;20466;-77
2022/03/02 06:39:26;;;;;;;10.88;7.78;;;;;;;2.72;58.31;101159.19;5034709;28;20069;-80
2022/03/02 06:42:05;;;;;;;12.05;7.70;;;;;;;2.70;58.90;101172.34;5035500;28;20076;-80
2022/03/02 06:44:40;;;;;;;13.10;8.65;;;;;;;2.70;59.09;101172.34;5035731;28;20049;-81
2022/03/02 06:47:10;;;;;;;12.48;8.02;;;;;;;2.71;58.36;101173.19;5035083;28;20421;-79
2022/03/02 06:49:59;;;;;;;10.18;6.93;;;;;;;2.74;58.46;101168.03;5035129;28;20417;-78
2022/03/02 06:52:33;;;;;;;10.27;7.03;;;;;;;2.82;58.35;101186.91;5031285;28;20053;-78
2022/03/02 06:55:04;;;;;;;11.85;7.40;;;;;;;2.91;57.80;101181.00;5024077;28;20500;-78
2022/03/02 06:57:34;;;;;;;9.80;7.35;;;;;;;3.30;58.08;101192.16;5033140;28;20053;-78
2022/03/02 07:00:06;;;;;;;11.23;7.85;;;;;;;4.68;55.97;101181.31;5034816;28;20057;-78
2022/03/02 07:02:40;;;;;;;11.60;7.82;;;;;;;6.22;52.10;101173.56;5034252;28;20053;-77
2022/03/02 07:05:09;;;;;;;14.35;10.18;;;;;;;7.43;48.88;101170.59;5031300;28;20484;-77
2022/03/02 07:07:37;;;;;;;13.63;10.25;;;;;;;8.58;45.68;101155.16;5025666;28;20064;-77
2022/03/02 07:10:07;;;;;;;10.73;7.40;;;;;;;9.52;43.24;101155.16;5033363;28;20045;-77
2022/03/02 07:12:36;;;;;;;10.98;7.50;;;;;;;10.62;41.01;101162.94;5029338;28;20061;-77
2022/03/02 07:15:05;;;;;;;10.55;6.82;;;;;;;11.62;39.42;101148.94;5032122;28;20056;-80
2022/03/02 07:17:33;;;;;;;11.15;7.65;;;;;;;12.63;36.40;101149.31;5033829;28;20485;-76
2022/03/02 07:20:00;;;;;;;9.23;7.57;;;;;;;13.51;34.27;101137.84;5033057;28;20041;-76
2022/03/02 07:22:32;;;;;;;10.18;7.70;;;;;;;13.96;32.79;101143.38;5031388;28;20053;-75
2022/03/02 07:25:07;;;;;;;10.25;6.55;;;;;;;14.79;31.90;101134.34;5031206;28;20046;-80
2022/03/02 07:27:39;;;;;;;10.23;7.70;;;;;;;15.56;30.26;101138.34;5039022;28;20052;-81
2022/03/02 07:30:09;;;;;;;9.85;7.30;;;;;;;15.93;28.66;101127.56;5033211;28;20416;-81
2022/03/02 07:32:40;;;;;;;8.55;7.18;;;;;;;16.46;27.69;101132.97;5034460;28;20403;-81
2022/03/02 07:35:09;;;;;;;8.15;6.97;;;;;;;17.18;26.48;101134.72;5035816;28;20508;-81
2022/03/02 07:37:37;;;;;;;8.55;6.93;;;;;;;17.76;25.73;101137.66;5035695;28;20481;-80
2022/03/02 07:40:06;;;;;;;8.45;6.93;;;;;;;18.43;24.50;101129.13;5033314;28;20478;-81
2022/03/02 07:42:35;;;;;;;10.80;7.57;;;;;;;18.92;24.05;101131.97;5034138;28;20493;-81
2022/03/02 07:45:04;;;;;;;9.82;7.88;;;;;;;19.47;23.44;101127.56;5036831;28;20057;-81
2022/03/02 07:47:32;;;;;;;10.05;7.53;;;;;;;19.99;23.53;101127.78;5036578;28;20484;-81
2022/03/02 07:50:00;;;;;;;8.50;7.47;;;;;;;20.50;22.24;101127.09;5035062;28;20049;-81
2022/03/02 07:52:30;;;;;;;12.27;8.48;;;;;;;20.93;21.95;101123.28;5035956;28;20494;-81
2022/03/02 07:55:02;;;;;;;10.07;8.48;;;;;;;21.42;21.08;101125.63;5035961;28;20077;-82
2022/03/02 07:57:30;;;;;;;9.60;7.78;;;;;;;21.86;21.06;101118.81;5035258;28;20045;-81
2022/03/02 08:00:00;;;;;;;9.43;7.93;;;;;;;22.29;20.32;101114.75;5036564;28;20053;-81
2022/03/02 08:02:31;;;;;;;;;;;;;;;22.24;19.98;101115.06;5035837;28;20049;-81
2022/03/02 08:04:59;;;;;;;8.80;8.00;;;;;;;22.91;19.83;101119.38;5035205;28;19921;-81
2022/03/02 08:07:27;;;;;;;9.97;8.10;;;;;;;23.37;19.71;101110.72;5035458;28;20044;-82
2022/03/02 08:09:54;;;;;;;12.48;9.05;;;;;;;23.94;18.30;101106.88;5032779;28;20068;-82
2022/03/02 08:12:24;;;;;;;8.88;7.60;;;;;;;24.35;17.91;101104.03;5034434;28;20052;-82
2022/03/02 08:14:52;;;;;;;10.25;8.25;;;;;;;24.89;17.41;101099.56;5043087;28;20057;-82
2022/03/02 08:17:21;;;;;;;10.55;8.35;;;;;;;25.22;17.27;101094.88;5048528;28;20418;-82
2022/03/02 08:19:49;;;;;;;9.32;8.32;;;;;;;25.44;16.93;101090.09;5036956;28;20064;-82
2022/03/02 08:22:19;;;;;;;9.07;8.07;;;;;;;26.05;16.67;101093.13;5036837;28;20060;-82
2022/03/02 08:24:52;;;;;;;9.65;7.97;;;;;;;26.20;16.39;101102.50;5035531;28;20382;-82
2022/03/02 08:27:23;;;;;;;8.40;7.60;;;;;;;26.97;16.10;101094.31;5035468;28;20046;-82
2022/03/02 08:29:56;;;;;;;8.38;7.47;;;;;;;27.23;15.65;101077.91;5038976;28;20049;-83
2022/03/02 08:32:26;;;;;;;11.05;8.25;;;;;;;27.66;14.95;101075.66;5051978;28;20053;-82
2022/03/02 08:34:53;;;;;;;11.45;8.70;;;;;;;28.03;14.50;101073.38;5035848;28;20049;-83
2022/03/02 08:37:22;;;;;;;9.13;7.78;;;;;;;28.13;14.65;101075.34;5034013;28;20050;-82
2022/03/02 08:39:49;;;;;;;8.82;7.82;;;;;;;28.39;14.01;101075.97;5030296;28;20053;-82
2022/03/02 08:42:17;;;;;;;9.27;8.02;;;;;;;28.80;13.76;101067.41;5032994;28;20516;-83
2022/03/02 08:44:46;;;;;;;8.77;7.88;;;;;;;28.92;13.75;101066.03;5053244;28;20405;-83
2022/03/02 08:47:14;;;;;;;10.55;8.30;;;;;;;29.45;12.94;101067.44;5035050;28;20052;-83
2022/03/02 08:49:46;;;;;;;10.40;8.18;;;;;;;29.73;12.96;101065.44;5034033;28;20175;-83
2022/03/02 08:52:14;;;;;;;10.45;8.70;;;;;;;30.20;12.76;101062.66;5034046;28;20076;-83
2022/03/02 08:54:46;;;;;;;9.57;8.57;;;;;;;30.60;12.38;101071.44;5033343;28;20042;-82
2022/03/02 08:57:15;;;;;;;9.93;8.85;;;;;;;30.60;12.61;101062.00;5032257;28;20057;-85
2022/03/02 08:59:44;;;;;;;10.63;9.13;;;;;;;30.58;12.70;101050.94;5035880;28;20049;-83
2022/03/02 09:02:19;;;;;;;10.85;8.57;;;;;;;31.03;11.98;101059.13;5027288;28;20410;-83
2022/03/02 09:04:48;;;;;;;9.77;8.20;;;;;;;31.22;12.08;101050.94;5032331;28;20497;-82
2022/03/02 09:07:18;;;;;;;9.25;8.32;;;;;;;31.26;12.23;101063.19;5032154;28;20076;-82
2022/03/02 09:09:46;;;;;;;10.18;8.13;;;;;;;31.34;11.97;101058.88;5033059;28;20048;-83
2022/03/02 09:12:15;;;;;;;9.27;8.38;;;;;;;31.56;11.96;101062.13;5033412;28;20057;-83
2022/03/02 09:14:43;;;;;;;10.25;7.97;;;;;;;31.92;11.83;101062.13;5033170;28;20050;-82
2022/03/02 09:17:11;;;;;;;8.20;7.40;;;;;;;31.73;12.17;101054.31;5032719;28;20065;-83
2022/03/02 09:19:39;;;;;;;9.65;8.20;;;;;;;32.31;11.57;101051.69;5039776;28;20061;-83
2022/03/02 09:22:07;;;;;;;8.13;7.33;;;;;;;32.26;11.12;101060.88;5037276;28;20053;-82
2022/03/02 09:24:37;;;;;;;8.32;7.53;;;;;;;32.67;10.92;101053.63;5036263;28;20061;-83
2022/03/02 09:27:07;;;;;;;8.10;7.30;;;;;;;32.89;10.54;101053.06;5037319;28;20070;-82
2022/03/02 09:29:38;;;;;;;8.85;7.85;;;;;;;33.45;9.87;101048.94;5036591;28;20428;-82
2022/03/02 09:32:06;;;;;;;7.78;6.97;;;;;;;33.54;10.50;101041.22;5038048;28;20049;-83
2022/03/02 09:34:34;;;;;;;;;;;;;;;33.41;9.86;101040.41;5037381;28;20068;-83
2022/03/02 09:37:03;;;;;;;8.88;7.65;;;;;;;33.93;10.10;101042.03;5036725;28;19946;-82
2022/03/02 09:39:35;;;;;;;9.05;7.45;;;;;;;34.29;9.46;101040.91;5035948;28;20050;-81
2022/03/02 09:42:06;;;;;;;8.80;7.90;;;;;;;34.52;9.40;101042.56;5035704;28;20482;-81
2022/03/02 09:44:40;;;;;;;9.35;8.02;;;;;;;35.24;8.96;101050.72;5035053;28;20057;-81
2022/03/02 09:47:09;;;;;;;7.90;7.10;;;;;;;35.14;9.27;101047.78;5039972;28;20052;-81
2022/03/02 09:49:37;;;;;;;8.00;7.22;;;;;;;35.01;9.51;101058.59;5036742;28;20060;-82
2022/03/02 09:52:08;;;;;;;9.27;6.88;;;;;;;35.34;9.05;101049.50;5035995;28;20057;-82
2022/03/02 09:54:38;;;;;;;8.32;7.07;;;;;;;35.76;8.57;101047.03;5034095;28;20045;-86
2022/03/02 09:57:07;;;;;;;7.57;6.80;;;;;;;35.83;8.19;101048.81;5035902;28;20045;-85
2022/03/02 09:59:37;;;;;;;7.43;6.72;;;;;;;36.07;7.58;101051.16;5031663;28;20065;-80
2022/03/02 10:02:10;;;;;;;7.68;6.97;;;;;;;36.25;7.57;101054.13;5035824;28;20054;-83
2022/03/02 10:04:49;;;;;;;7.85;7.05;;;;;;;36.23;7.51;101047.19;5036061;28;20053;-82
2022/03/02 10:07:29;;;;;;;7.82;6.55;;;;;;;36.31;7.72;101049.31;5039340;28;20064;-84
2022/03/02 10:10:05;;;;;;;7.82;6.70;;;;;;;36.71;7.45;101042.59;5038547;28;20049;-84
2022/03/02 10:12:35;;;;;;;8.25;6.90;;;;;;;36.33;7.72;101043.84;5051557;28;20536;-84
2022/03/02 10:15:06;;;;;;;7.55;6.82;;;;;;;36.66;7.62;101040.31;5045428;28;20053;-85
2022/03/02 10:17:36;;;;;;;7.90;7.18;;;;;;;36.82;7.35;101030.50;5033644;28;20049;-84
2022/03/02 10:20:08;;;;;;;8.68;7.85;;;;;;;36.46;7.60;101034.19;5039038;28;20060;-84
2022/03/02 10:22:57;;;;;;;7.05;6.35;;;;;;;36.88;7.29;101033.56;5038685;28;20414;-84
2022/03/02 10:25:43;;;;;;;9.18;6.07;;;;;;;37.05;6.66;101031.91;5037907;28;20149;-85
2022/03/02 10:28:16;;;;;;;8.15;6.75;;;;;;;36.52;7.31;101035.97;5038563;28;20053;-85
2022/03/02 10:30:49;;;;;;;7.75;6.90;;;;;;;37.02;6.53;101027.06;5028027;28;20045;-84
2022/03/02 10:33:21;;;;;;;7.15;6.35;;;;;;;36.67;7.09;101021.63;5037852;28;20049;-85
2022/03/02 10:35:53;;;;;;;6.95;6.30;;;;;;;37.05;6.58;101017.41;5018841;28;20064;-85
2022/03/02 10:38:31;;;;;;;7.60;6.43;;;;;;;36.93;6.76;101016.28;5021604;28;20050;-85
2022/03/02 10:41:01;;;;;;;7.63;6.93;;;;;;;37.14;6.45;101023.22;5039939;28;20061;-84
2022/03/02 10:43:39;;;;;;;7.00;6.30;;;;;;;37.30;6.38;101022.06;5037746;28;20060;-84
2022/03/02 10:46:10;;;;;;;7.50;6.78;;;;;;;37.46;6.62;101012.13;5037891;28;20054;-84
2022/03/02 10:48:46;;;;;;;7.88;6.30;;;;;;;37.13;6.64;101018.72;5040019;28;20064;-85
2022/03/02 10:51:15;;;;;;;7.18;5.93;;;;;;;37.16;6.98;101020.63;5058945;28;20064;-85
2022/03/02 10:53:47;;;;;;;7.43;6.72;;;;;;;37.55;6.72;101009.22;5050471;28;20060;-85
2022/03/02 10:56:18;;;;;;;7.65;6.88;;;;;;;36.31;6.65;101008.69;5037488;28;20061;-85
2022/03/02 10:58:50;;;;;;;7.43;6.72;;;;;;;36.34;7.08;101006.91;5021460;28;20060;-84
2022/03/02 11:01:18;;;;;;;7.50;6.60;;;;;;;36.31;6.46;101011.59;5037544;28;20378;-84
2022/03/02 11:03:46;;;;;;;7.57;6.32;;;;;;;36.22;6.81;101010.75;5033472;28;20088;-84
2022/03/02 11:06:13;;;;;;;7.35;6.47;;;;;;;36.29;6.64;101011.25;5037396;28;20049;-84
2022/03/02 11:08:43;;;;;;;7.90;7.07;;;;;;;36.15;6.94;101001.09;5035973;28;20494;-85
2022/03/02 11:11:11;;;;;;;7.40;6.55;;;;;;;36.66;6.39;100996.78;5037620;28;20386;-85
2022/03/02 11:13:40;;;;;;;8.02;6.40;;;;;;;36.24;6.89;100991.59;5039712;28;20053;-85
2022/03/02 11:16:07;;;;;;;6.72;6.07;;;;;;;36.72;6.37;100991.94;5047673;28;20045;-84
2022/03/02 11:18:39;;;;;;;7.15;6.45;;;;;;;36.60;7.30;100995.78;5037489;28;20053;-85
2022/03/02 11:21:08;;;;;;;6.90;6.07;;;;;;;36.41;6.75;100985.47;5037260;28;20049;-83
2022/03/02 11:23:42;;;;;;;6.60;6.00;;;;;;;36.48;6.76;100985.19;5035162;28;20053;-84
2022/03/02 11:26:12;;;;;;;6.63;6.03;;;;;;;35.67;6.58;100986.09;5037004;28;20068;-84
2022/03/02 11:28:45;;;;;;;7.30;6.57;;;;;;;36.09;6.03;100976.06;5035706;28;20520;-84
2022/03/02 11:31:18;;;;;;;6.72;5.68;;;;;;;36.30;6.23;100969.34;5036767;28;20053;-84
2022/03/02 11:33:45;;;;;;;8.02;6.47;;;;;;;36.61;7.03;100965.50;5036352;28;20405;-84
2022/03/02 11:36:17;;;;;;;7.30;5.95;;;;;;;36.92;6.54;100974.03;5036685;28;20053;-84
2022/03/02 11:38:47;;;;;;;6.97;6.28;;;;;;;36.87;5.99;100970.97;5036295;28;20045;-84